createdAt,value
2023-12-27T00:00:30.415Z,7.43
2023-12-27T00:02:58.970Z,7.41
2023-12-27T00:05:27.320Z,7.41
2023-12-27T00:07:54.967Z,7.47
2023-12-27T00:10:22.518Z,7.52
2023-12-27T00:12:49.947Z,7.51
2023-12-27T00:15:17.408Z,7.47
2023-12-27T00:17:45.041Z,7.43
2023-12-27T00:20:12.613Z,7.45
2023-12-27T00:22:40.370Z,7.46
2023-12-27T00:25:08.290Z,7.39
2023-12-27T00:27:35.729Z,7.29
2023-12-27T00:30:04.265Z,7.22
2023-12-27T00:32:31.940Z,7.25
2023-12-27T00:34:59.450Z,7.25
2023-12-27T00:37:26.902Z,7.21
2023-12-27T00:39:54.316Z,7.18
2023-12-27T00:42:22.931Z,7.17
2023-12-27T00:44:51.215Z,7.17
2023-12-27T00:47:18.711Z,7.06
2023-12-27T00:49:46.199Z,7.04
2023-12-27T00:52:13.703Z,7.01
2023-12-27T00:54:41.179Z,7.01
2023-12-27T00:57:09.027Z,6.96
2023-12-27T00:59:36.595Z,6.88
2023-12-27T01:02:04.691Z,6.81
2023-12-27T01:04:33.795Z,6.80
2023-12-27T01:07:01.310Z,6.82
2023-12-27T01:09:28.925Z,6.77
2023-12-27T01:11:56.546Z,6.68
2023-12-27T01:14:24.953Z,6.61
2023-12-27T01:16:52.397Z,6.57
2023-12-27T01:19:20.444Z,6.53
2023-12-27T01:21:48.063Z,6.46
2023-12-27T01:24:15.513Z,6.39
2023-12-27T01:26:43.038Z,6.37
2023-12-27T01:29:10.634Z,6.40
2023-12-27T01:31:38.096Z,6.37
2023-12-27T01:34:12.714Z,6.31
2023-12-27T01:36:46.833Z,6.28
2023-12-27T01:39:14.303Z,6.31
2023-12-27T01:41:41.822Z,6.32
2023-12-27T01:44:09.245Z,6.27
2023-12-27T01:46:36.723Z,6.25
2023-12-27T01:49:04.539Z,6.27
2023-12-27T01:51:32.257Z,6.30
2023-12-27T01:53:59.985Z,6.27
2023-12-27T01:56:27.418Z,6.24
2023-12-27T01:58:54.874Z,6.23
2023-12-27T02:01:22.393Z,6.22
2023-12-27T02:03:49.937Z,6.34
2023-12-27T02:06:20.353Z,6.35
2023-12-27T02:08:48.947Z,6.33
2023-12-27T02:11:17.224Z,6.34
2023-12-27T02:13:44.676Z,6.39
2023-12-27T02:16:12.137Z,6.40
2023-12-27T02:18:39.746Z,6.38
2023-12-27T02:21:08.763Z,6.36
2023-12-27T02:23:37.471Z,6.39
2023-12-27T02:26:04.964Z,6.42
2023-12-27T02:28:32.550Z,6.32
2023-12-27T02:31:00.079Z,6.34
2023-12-27T02:33:27.760Z,6.32
2023-12-27T02:35:55.517Z,6.35
2023-12-27T02:38:23.155Z,6.40
2023-12-27T02:40:50.673Z,6.39
2023-12-27T02:43:18.114Z,6.39
2023-12-27T02:45:45.620Z,6.38
2023-12-27T02:48:13.228Z,6.43
2023-12-27T02:50:45.006Z,6.49
2023-12-27T02:53:12.861Z,6.48
2023-12-27T02:55:41.754Z,6.45
2023-12-27T02:58:09.221Z,6.41
2023-12-27T03:00:39.252Z,6.41
2023-12-27T03:03:06.905Z,6.48
2023-12-27T03:05:34.890Z,6.46
2023-12-27T03:08:02.299Z,6.42
2023-12-27T03:10:29.744Z,6.38
2023-12-27T03:12:57.187Z,6.42
2023-12-27T03:15:24.789Z,6.45
2023-12-27T03:17:52.382Z,6.43
2023-12-27T03:20:19.901Z,6.42
2023-12-27T03:22:47.343Z,6.40
2023-12-27T03:25:14.863Z,6.44
2023-12-27T03:27:42.400Z,6.48
2023-12-27T03:30:10.972Z,6.47
2023-12-27T03:32:38.555Z,6.44
2023-12-27T03:35:06.662Z,6.42
2023-12-27T03:37:34.096Z,6.41
2023-12-27T03:40:01.680Z,6.46
2023-12-27T03:42:29.177Z,6.49
2023-12-27T03:44:56.919Z,6.48
2023-12-27T03:47:24.407Z,6.45
2023-12-27T03:49:51.883Z,6.44
2023-12-27T03:52:19.398Z,6.42
2023-12-27T03:54:46.886Z,6.46
2023-12-27T03:57:14.354Z,6.46
2023-12-27T03:59:42.255Z,6.42
2023-12-27T04:02:10.133Z,6.38
2023-12-27T04:04:40.110Z,6.36
2023-12-27T04:07:07.502Z,6.38
2023-12-27T04:09:35.042Z,6.36
2023-12-27T04:12:02.579Z,6.30
2023-12-27T04:14:30.137Z,6.25
2023-12-27T04:16:57.554Z,6.24
2023-12-27T04:19:25.087Z,6.30
2023-12-27T04:21:52.573Z,6.32
2023-12-27T04:24:20.187Z,6.30
2023-12-27T04:26:47.670Z,6.26
2023-12-27T04:29:15.233Z,6.24
2023-12-27T04:31:42.669Z,6.22
2023-12-27T04:34:10.231Z,6.25
2023-12-27T04:36:38.490Z,6.23
2023-12-27T04:39:08.033Z,6.17
2023-12-27T04:41:35.601Z,6.13
2023-12-27T04:44:03.026Z,6.09
2023-12-27T04:46:30.476Z,6.14
2023-12-27T04:48:58.150Z,6.15
2023-12-27T04:51:28.639Z,6.09
2023-12-27T04:53:57.202Z,6.04
2023-12-27T04:56:24.786Z,6.02
2023-12-27T04:58:52.308Z,6.04
2023-12-27T05:01:19.879Z,6.09
2023-12-27T05:03:48.272Z,6.06
2023-12-27T05:06:15.985Z,6.03
2023-12-27T05:08:44.720Z,6.03
2023-12-27T05:11:16.641Z,6.01
2023-12-27T05:13:44.690Z,6.06
2023-12-27T05:16:13.283Z,6.09
2023-12-27T05:18:41.403Z,6.08
2023-12-27T05:21:09.577Z,6.06
2023-12-27T05:23:37.366Z,6.05
2023-12-27T05:26:05.306Z,6.05
2023-12-27T05:28:33.285Z,6.11
2023-12-27T05:31:01.206Z,6.13
2023-12-27T05:33:28.979Z,6.12
2023-12-27T05:35:58.437Z,6.10
2023-12-27T05:38:26.242Z,6.08
2023-12-27T05:40:53.816Z,6.10
2023-12-27T05:43:21.238Z,6.13
2023-12-27T05:45:48.841Z,6.09
2023-12-27T05:48:16.441Z,6.06
2023-12-27T05:50:45.013Z,6.05
2023-12-27T05:53:14.995Z,6.05
2023-12-27T05:55:42.884Z,6.08
2023-12-27T05:58:10.464Z,6.08
2023-12-27T06:00:39.047Z,6.04
2023-12-27T06:03:06.808Z,6.00
2023-12-27T06:05:34.532Z,6.00
2023-12-27T06:08:02.073Z,6.02
2023-12-27T06:10:31.143Z,6.01
2023-12-27T06:12:58.769Z,5.99
2023-12-27T06:15:26.205Z,5.94
2023-12-27T06:17:53.738Z,5.96
2023-12-27T06:20:21.508Z,5.97
2023-12-27T06:22:48.952Z,5.95
2023-12-27T06:25:16.466Z,5.91
2023-12-27T06:27:43.973Z,5.85
2023-12-27T06:30:12.284Z,5.85
2023-12-27T06:32:39.923Z,5.84
2023-12-27T06:35:07.846Z,5.79
2023-12-27T06:37:36.209Z,5.74
2023-12-27T06:40:06.957Z,5.72
2023-12-27T06:42:34.453Z,5.68
2023-12-27T06:45:02.449Z,5.61
2023-12-27T06:47:30.030Z,5.55
2023-12-27T06:49:57.608Z,5.42
2023-12-27T06:52:25.289Z,5.29
2023-12-27T06:54:52.697Z,5.18
2023-12-27T06:57:20.150Z,5.09
2023-12-27T06:59:47.918Z,5.02
2023-12-27T07:02:15.597Z,4.97
2023-12-27T07:04:44.821Z,4.93
2023-12-27T07:07:12.383Z,4.90
2023-12-27T07:09:39.916Z,4.86
2023-12-27T07:12:09.859Z,4.81
2023-12-27T07:14:37.327Z,4.78
2023-12-27T07:17:05.520Z,4.75
2023-12-27T07:19:34.155Z,4.75
2023-12-27T07:22:02.847Z,4.73
2023-12-27T07:24:31.155Z,4.69
2023-12-27T07:26:58.893Z,4.69
2023-12-27T07:29:26.506Z,4.73
2023-12-27T07:31:54.056Z,4.73
2023-12-27T07:34:23.193Z,4.69
2023-12-27T07:36:50.904Z,4.66
2023-12-27T07:39:18.430Z,4.61
2023-12-27T07:41:46.149Z,4.57
2023-12-27T07:44:13.780Z,4.54
2023-12-27T07:46:41.249Z,4.53
2023-12-27T07:49:08.764Z,4.58
2023-12-27T07:51:36.374Z,4.58
2023-12-27T07:54:04.437Z,4.52
2023-12-27T07:56:32.173Z,4.44
2023-12-27T07:58:59.670Z,4.39
2023-12-27T08:01:31.873Z,4.36
2023-12-27T08:04:02.600Z,4.37
2023-12-27T08:06:30.424Z,4.41
2023-12-27T08:08:58.424Z,4.40
2023-12-27T08:11:25.916Z,4.37
2023-12-27T08:13:53.366Z,4.34
2023-12-27T08:16:20.790Z,4.28
2023-12-27T08:18:48.360Z,4.25
2023-12-27T08:21:16.076Z,4.28
2023-12-27T08:23:43.719Z,4.30
2023-12-27T08:26:12.125Z,4.30
2023-12-27T08:28:39.721Z,4.38
2023-12-27T08:31:08.000Z,4.50
2023-12-27T08:33:38.579Z,4.63
2023-12-27T08:36:06.790Z,4.74
2023-12-27T08:38:34.390Z,4.84
2023-12-27T08:41:04.395Z,4.93
2023-12-27T08:43:31.945Z,5.06
2023-12-27T08:45:59.446Z,5.20
2023-12-27T08:48:27.166Z,5.28
2023-12-27T08:50:55.011Z,5.25
2023-12-27T08:53:22.472Z,5.15
2023-12-27T08:55:49.927Z,5.01
2023-12-27T08:58:17.698Z,4.88
2023-12-27T09:00:45.333Z,4.73
2023-12-27T09:03:13.028Z,4.66
2023-12-27T09:05:40.688Z,4.66
2023-12-27T09:08:08.257Z,4.62
2023-12-27T09:10:36.481Z,4.62
2023-12-27T09:13:05.187Z,4.63
2023-12-27T09:15:32.789Z,4.65
2023-12-27T09:18:00.965Z,4.66
2023-12-27T09:20:28.875Z,4.68
2023-12-27T09:22:56.460Z,4.69
2023-12-27T09:25:24.158Z,4.72
2023-12-27T09:27:51.717Z,4.71
2023-12-27T09:30:19.378Z,4.70
2023-12-27T09:32:47.197Z,4.69
2023-12-27T09:35:14.877Z,4.69
2023-12-27T09:37:42.375Z,4.69
2023-12-27T09:40:10.846Z,4.68
2023-12-27T09:42:39.154Z,4.68
2023-12-27T09:45:10.005Z,4.74
2023-12-27T09:47:39.229Z,4.81
2023-12-27T09:50:07.725Z,4.84
2023-12-27T09:52:35.259Z,4.83
2023-12-27T09:55:03.834Z,4.84
2023-12-27T09:57:31.451Z,4.84
2023-12-27T09:59:59.115Z,4.81
2023-12-27T10:02:29.944Z,4.83
2023-12-27T10:05:03.595Z,4.84
2023-12-27T10:07:31.529Z,4.85
2023-12-27T10:10:07.935Z,4.87
2023-12-27T10:12:44.741Z,4.91
2023-12-27T10:15:15.915Z,4.95
2023-12-27T10:17:43.744Z,4.98
2023-12-27T10:20:15.761Z,4.99
2023-12-27T10:22:43.312Z,4.97
2023-12-27T10:25:10.814Z,4.95
2023-12-27T10:27:40.900Z,4.93
2023-12-27T10:30:09.884Z,4.93
2023-12-27T10:32:37.609Z,4.91
2023-12-27T10:35:05.879Z,4.90
2023-12-27T10:37:33.444Z,4.89
2023-12-27T10:40:01.226Z,4.87
2023-12-27T10:42:29.711Z,4.85
2023-12-27T10:44:57.503Z,4.83
2023-12-27T10:47:25.111Z,4.80
2023-12-27T10:49:53.500Z,4.82
2023-12-27T10:52:21.136Z,4.84
2023-12-27T10:54:51.691Z,4.87
2023-12-27T10:57:20.893Z,4.90
2023-12-27T10:59:48.393Z,4.94
2023-12-27T11:02:16.121Z,4.95
2023-12-27T11:06:59.353Z,4.92
2023-12-27T11:09:26.931Z,4.88
2023-12-27T11:11:54.541Z,4.87
2023-12-27T11:14:26.280Z,4.86
2023-12-27T11:16:54.090Z,4.85
2023-12-27T11:19:21.675Z,4.84
2023-12-27T11:21:49.439Z,4.84
2023-12-27T11:24:17.191Z,4.85
2023-12-27T11:26:44.719Z,4.84
2023-12-27T11:29:12.383Z,4.85
2023-12-27T11:31:40.440Z,4.82
2023-12-27T11:34:08.368Z,4.80
2023-12-27T11:36:36.294Z,4.78
2023-12-27T11:39:20.213Z,4.77
2023-12-27T11:41:48.809Z,4.77
2023-12-27T11:44:16.336Z,4.76
2023-12-27T11:46:44.068Z,4.75
2023-12-27T11:49:22.610Z,4.75
2023-12-27T11:51:50.292Z,4.75
2023-12-27T11:54:23.052Z,4.75
2023-12-27T11:56:50.606Z,4.77
2023-12-27T11:59:18.090Z,4.79
2023-12-27T12:01:45.601Z,4.83
2023-12-27T12:04:39.191Z,4.86
2023-12-27T12:07:16.050Z,4.91
2023-12-27T12:09:48.286Z,5.03
2023-12-27T12:12:20.959Z,5.17
2023-12-27T12:14:53.398Z,5.25
2023-12-27T12:17:22.146Z,5.27
2023-12-27T12:19:50.790Z,5.29
2023-12-27T12:22:18.620Z,5.30
2023-12-27T12:24:46.566Z,5.32
2023-12-27T12:27:22.258Z,5.34
2023-12-27T12:29:49.853Z,5.35
2023-12-27T12:32:17.366Z,5.35
2023-12-27T12:34:45.173Z,5.33
2023-12-27T12:37:12.874Z,5.24
2023-12-27T12:39:40.472Z,5.08
2023-12-27T12:42:09.334Z,4.84
2023-12-27T12:44:37.544Z,4.60
2023-12-27T12:47:05.698Z,4.39
2023-12-27T12:49:33.370Z,4.19
2023-12-27T12:52:08.479Z,4.04
2023-12-27T12:54:37.333Z,3.93
2023-12-27T12:57:06.004Z,3.93
2023-12-27T12:59:33.984Z,3.93
2023-12-27T13:02:02.113Z,3.87
2023-12-27T13:04:30.324Z,3.83
2023-12-27T13:07:05.503Z,3.80
2023-12-27T13:09:33.500Z,3.85
2023-12-27T13:12:01.524Z,3.89
2023-12-27T13:14:29.011Z,3.89
2023-12-27T13:16:56.707Z,3.87
2023-12-27T13:19:24.454Z,3.83
2023-12-27T13:21:53.081Z,3.80
2023-12-27T13:24:20.851Z,3.87
2023-12-27T13:26:48.425Z,3.91
2023-12-27T13:29:16.579Z,3.89
2023-12-27T13:31:44.237Z,3.88
2023-12-27T13:34:12.205Z,3.84
2023-12-27T13:36:39.818Z,3.86
2023-12-27T13:39:08.513Z,3.89
2023-12-27T13:41:36.083Z,3.94
2023-12-27T13:44:03.611Z,3.94
2023-12-27T13:46:32.056Z,3.93
2023-12-27T13:48:59.796Z,3.92
2023-12-27T13:51:27.718Z,3.93
2023-12-27T13:53:55.211Z,3.94
2023-12-27T13:56:22.807Z,3.96
2023-12-27T13:58:50.289Z,4.04
2023-12-27T14:01:17.968Z,4.07
2023-12-27T14:03:45.628Z,4.07
2023-12-27T14:06:15.148Z,4.04
2023-12-27T14:08:44.035Z,4.01
2023-12-27T14:11:11.595Z,3.97
2023-12-27T14:13:39.161Z,3.90
2023-12-27T14:16:06.778Z,3.91
2023-12-27T14:18:34.391Z,3.97
2023-12-27T14:21:02.594Z,3.98
2023-12-27T14:23:30.234Z,3.98
2023-12-27T14:25:58.575Z,3.98
2023-12-27T14:28:26.083Z,3.98
2023-12-27T14:30:54.744Z,4.00
2023-12-27T14:33:22.428Z,4.00
2023-12-27T14:35:50.001Z,3.99
2023-12-27T14:38:17.470Z,4.00
2023-12-27T14:40:45.005Z,3.97
2023-12-27T14:43:12.735Z,4.03
2023-12-27T14:45:40.557Z,4.00
2023-12-27T14:48:08.495Z,3.96
2023-12-27T14:50:36.462Z,3.89
2023-12-27T14:53:04.487Z,3.84
2023-12-27T14:55:32.301Z,3.80
2023-12-27T14:58:00.073Z,3.77
2023-12-27T15:00:28.936Z,3.74
2023-12-27T15:02:56.516Z,3.71
2023-12-27T15:05:24.325Z,3.70
2023-12-27T15:08:17.125Z,3.76
2023-12-27T15:10:44.626Z,3.83
2023-12-27T15:13:12.150Z,3.83
2023-12-27T15:15:39.750Z,3.78
2023-12-27T15:18:07.614Z,3.70
2023-12-27T15:20:35.235Z,3.59
2023-12-27T15:23:04.254Z,3.54
2023-12-27T15:25:31.752Z,3.55
2023-12-27T15:27:59.808Z,3.45
2023-12-27T15:30:27.643Z,3.49
2023-12-27T15:32:55.392Z,3.46
2023-12-27T15:35:23.026Z,3.43
2023-12-27T15:37:50.552Z,3.42
2023-12-27T15:40:17.992Z,3.46
2023-12-27T15:42:46.497Z,3.56
2023-12-27T15:45:14.151Z,3.55
2023-12-27T15:47:45.521Z,3.48
2023-12-27T15:50:13.377Z,3.37
2023-12-27T15:52:42.912Z,3.25
2023-12-27T15:55:10.527Z,3.13
2023-12-27T15:57:38.536Z,3.11
2023-12-27T16:00:07.112Z,3.06
2023-12-27T16:02:34.622Z,2.98
2023-12-27T16:05:02.218Z,2.91
2023-12-27T16:07:29.796Z,2.86
2023-12-27T16:09:57.299Z,2.82
2023-12-27T16:12:26.888Z,2.84
2023-12-27T16:14:54.446Z,2.81
2023-12-27T16:17:21.979Z,2.75
2023-12-27T16:19:51.901Z,2.71
2023-12-27T16:22:20.111Z,2.67
2023-12-27T16:24:47.945Z,2.69
2023-12-27T16:27:15.630Z,2.68
2023-12-27T16:29:44.494Z,2.61
2023-12-27T16:32:15.472Z,2.54
2023-12-27T16:34:43.532Z,2.48
2023-12-27T16:37:11.235Z,2.51
2023-12-27T16:39:38.797Z,2.50
2023-12-27T16:42:10.029Z,2.47
2023-12-27T16:44:37.720Z,2.43
2023-12-27T16:47:07.850Z,2.41
2023-12-27T16:49:35.591Z,2.46
2023-12-27T16:52:04.028Z,2.50
2023-12-27T16:54:31.754Z,2.48
2023-12-27T16:56:59.208Z,2.44
2023-12-27T16:59:26.739Z,2.42
2023-12-27T17:01:54.236Z,2.40
2023-12-27T17:04:21.874Z,2.46
2023-12-27T17:06:49.539Z,2.47
2023-12-27T17:09:17.206Z,2.43
2023-12-27T17:11:45.222Z,2.38
2023-12-27T17:14:12.685Z,2.34
2023-12-27T17:16:40.176Z,2.38
2023-12-27T17:19:07.761Z,2.41
2023-12-27T17:21:35.486Z,2.39
2023-12-27T17:24:03.778Z,2.34
2023-12-27T17:26:31.245Z,2.31
2023-12-27T17:28:58.784Z,2.30
2023-12-27T17:31:26.603Z,2.35
2023-12-27T17:33:54.271Z,2.35
2023-12-27T17:36:21.946Z,2.32
2023-12-27T17:38:49.490Z,2.28
2023-12-27T17:41:16.988Z,2.24
2023-12-27T17:43:44.516Z,2.22
2023-12-27T17:46:12.046Z,2.28
2023-12-27T17:48:45.045Z,2.32
2023-12-27T17:51:13.011Z,2.30
2023-12-27T17:53:40.515Z,2.28
2023-12-27T17:56:08.345Z,2.25
2023-12-27T17:58:35.870Z,2.24
2023-12-27T18:01:03.533Z,2.24
2023-12-27T18:03:31.556Z,2.30
2023-12-27T18:05:59.220Z,2.35
2023-12-27T18:08:26.757Z,2.32
2023-12-27T18:10:54.233Z,2.31
2023-12-27T18:13:21.700Z,2.30
2023-12-27T18:15:49.309Z,2.27
2023-12-27T18:18:18.399Z,2.25
2023-12-27T18:20:46.024Z,2.31
2023-12-27T18:23:13.951Z,2.36
2023-12-27T18:25:42.133Z,2.35
2023-12-27T18:28:09.846Z,2.33
2023-12-27T18:30:37.479Z,2.31
2023-12-27T18:33:05.621Z,2.30
2023-12-27T18:35:33.678Z,2.28
2023-12-27T18:38:01.131Z,2.25
2023-12-27T18:40:28.848Z,2.29
2023-12-27T18:42:57.638Z,2.34
2023-12-27T18:45:26.232Z,2.34
2023-12-27T18:47:53.949Z,2.34
2023-12-27T18:50:21.891Z,2.34
2023-12-27T18:52:49.679Z,2.34
2023-12-27T18:55:17.435Z,2.34
2023-12-27T18:57:44.990Z,2.33
2023-12-27T19:00:14.480Z,2.36
2023-12-27T19:02:43.716Z,2.44
2023-12-27T19:05:11.580Z,2.50
2023-12-27T19:07:39.138Z,2.50
2023-12-27T19:10:08.513Z,2.49
2023-12-27T19:12:36.247Z,2.48
2023-12-27T19:15:04.450Z,2.48
2023-12-27T19:17:31.926Z,2.47
2023-12-27T19:20:00.539Z,2.46
2023-12-27T19:22:28.500Z,2.48
2023-12-27T19:24:56.034Z,2.57
2023-12-27T19:27:23.829Z,2.61
2023-12-27T19:29:51.344Z,2.63
2023-12-27T19:32:18.843Z,2.63
2023-12-27T19:34:46.455Z,2.64
2023-12-27T19:37:14.075Z,2.64
2023-12-27T19:39:41.618Z,2.62
2023-12-27T19:42:15.317Z,2.67
2023-12-27T19:44:42.929Z,2.75
2023-12-27T19:47:11.147Z,2.77
2023-12-27T19:49:38.748Z,2.75
2023-12-27T19:52:06.866Z,2.72
2023-12-27T19:54:34.404Z,2.68
2023-12-27T19:57:02.327Z,2.64
2023-12-27T19:59:29.869Z,2.62
2023-12-27T20:01:57.406Z,2.69
2023-12-27T20:04:25.058Z,2.76
2023-12-27T20:06:52.769Z,2.79
2023-12-27T20:09:20.546Z,2.80
2023-12-27T20:11:48.041Z,2.80
2023-12-27T20:14:17.107Z,2.79
2023-12-27T20:16:44.641Z,2.76
2023-12-27T20:19:12.253Z,2.75
2023-12-27T20:21:39.947Z,2.79
2023-12-27T20:24:08.157Z,2.80
2023-12-27T20:26:36.246Z,2.78
2023-12-27T20:29:04.754Z,2.75
2023-12-27T20:31:32.516Z,2.74
2023-12-27T20:34:00.239Z,2.74
2023-12-27T20:36:28.183Z,2.73
2023-12-27T20:39:00.059Z,2.80
2023-12-27T20:41:27.751Z,2.88
2023-12-27T20:43:55.444Z,2.88
2023-12-27T20:46:22.913Z,2.89
2023-12-27T20:48:50.958Z,2.89
2023-12-27T20:51:18.707Z,2.87
2023-12-27T20:53:46.742Z,2.84
2023-12-27T20:56:16.200Z,2.82
2023-12-27T20:58:43.689Z,2.82
2023-12-27T21:01:11.509Z,2.90
2023-12-27T21:03:39.259Z,2.96
2023-12-27T21:06:06.852Z,2.96
2023-12-27T21:08:34.483Z,2.95
2023-12-27T21:11:02.059Z,2.94
2023-12-27T21:13:29.535Z,2.94
2023-12-27T21:15:57.085Z,2.94
2023-12-27T21:18:24.711Z,2.93
2023-12-27T21:20:52.245Z,2.91
2023-12-27T21:23:21.783Z,2.91
2023-12-27T21:25:50.349Z,3.00
2023-12-27T21:28:17.831Z,3.05
2023-12-27T21:30:45.487Z,3.05
2023-12-27T21:33:13.143Z,3.03
2023-12-27T21:35:40.787Z,3.04
2023-12-27T21:38:08.256Z,3.04
2023-12-27T21:40:35.755Z,3.02
2023-12-27T21:43:03.268Z,2.98
2023-12-27T21:45:32.746Z,2.97
2023-12-27T21:48:00.798Z,2.96
2023-12-27T21:50:28.596Z,2.93
2023-12-27T21:52:56.037Z,2.92
2023-12-27T21:55:23.464Z,2.98
2023-12-27T21:57:50.972Z,3.04
2023-12-27T22:00:21.397Z,3.04
2023-12-27T22:02:48.978Z,3.04
2023-12-27T22:05:18.627Z,3.04
2023-12-27T22:07:49.571Z,3.03
2023-12-27T22:10:22.272Z,3.01
2023-12-27T22:12:49.808Z,2.99
2023-12-27T22:15:17.388Z,2.96
2023-12-27T22:17:44.922Z,2.93
2023-12-27T22:20:13.141Z,2.95
2023-12-27T22:22:41.762Z,3.01
2023-12-27T22:25:09.842Z,2.99
2023-12-27T22:27:38.785Z,2.96
2023-12-27T22:30:07.531Z,2.90
2023-12-27T22:32:35.011Z,2.85
2023-12-27T22:35:03.143Z,2.76
2023-12-27T22:37:32.529Z,2.69
2023-12-27T22:39:59.998Z,2.65
2023-12-27T22:42:27.468Z,2.69
2023-12-27T22:44:56.055Z,2.64
2023-12-27T22:47:26.047Z,2.55
2023-12-27T22:49:53.713Z,2.45
2023-12-27T22:52:21.248Z,2.34
2023-12-27T22:54:48.752Z,2.19
2023-12-27T22:57:16.302Z,2.10
2023-12-27T22:59:43.783Z,2.10
2023-12-27T23:02:11.215Z,2.10
2023-12-27T23:04:38.842Z,2.06
2023-12-27T23:07:06.418Z,2.00
2023-12-27T23:09:34.650Z,1.96
2023-12-27T23:12:02.242Z,1.92
2023-12-27T23:14:29.678Z,1.95
2023-12-27T23:16:57.322Z,1.99
2023-12-27T23:19:24.857Z,1.97
2023-12-27T23:24:56.991Z,1.94
2023-12-27T23:27:25.927Z,1.93
2023-12-27T23:29:53.919Z,2.01
2023-12-27T23:32:21.427Z,2.04
2023-12-27T23:34:49.092Z,2.02
2023-12-27T23:37:16.656Z,2.00
2023-12-27T23:39:44.362Z,1.98
2023-12-27T23:42:12.143Z,2.01
2023-12-27T23:44:39.715Z,2.08
2023-12-27T23:47:07.206Z,2.13
2023-12-27T23:49:35.040Z,2.14
2023-12-27T23:52:02.647Z,2.13
2023-12-27T23:54:30.165Z,2.13
2023-12-27T23:56:57.613Z,2.14
2023-12-27T23:59:25.481Z,2.21
